Dumas, TX

8:35 AM CST on November 21, 2017 (GMT -0600)
Moore County

Weather History for KDUX - May, 2013

Change the Weather History Date:

Saturday, May 25, 2013

  Actual Average (KDHT) Record (KDHT)
Temperature  
Mean Temperature 73 °F -  
Max Temperature 90 °F 81 °F 100 °F (2006)
Min Temperature 56 °F 51 °F 36 °F (1950)
Cooling Degree Days 8    
Growing Degree Days 23 (Base 50)    
Moisture  
Dew Point 53 °F    
Average Humidity 53    
Maximum Humidity 93    
Minimum Humidity 19    
Precipitation  
Precipitation 0.00 in - - ()
Sea Level Pressure  
Sea Level Pressure 30.04 in    
Wind  
Wind Speed 16 mph (South)    
Max Wind Speed 31 mph    
Max Gust Speed 44 mph    
Visibility 10 miles    
Events      
Averages and records for this station are not official NWS values.
T = Trace of Precipitation, MM = Missing Value Source: NWS Daily Summary

Daily Weather History Graph

Daily Weather History Graph

Search for Another Location

Airport or City:

Trip Planner

Search our weather history database for the weather conditions in past years. The results will help you decide how hot, cold, wet, or windy it might be!

Date:

Astronomy

May. 25, 2013 Rise Set
Actual Time 6:35 AM CDT 8:54 PM CDT
Civil Twilight 6:06 AM CDT 9:23 PM CDT
Nautical Twilight 5:30 AM CDT 9:59 PM CDT
Astronomical Twilight 4:51 AM CDT 10:39 PM CDT
Moon 9:45 PM CDT (5/25) 7:04 AM CDT (5/25)
Length of Visible Light 15h 17m
Length of Day
14h 18m
Full, 100% of the Moon is Illuminated
May 25
Full
May 31
Last Quarter
Jun 8
New
Jun 16
First Quarter
Jun 23
Full

Hourly Weather History & Observations

Time (CDT) Temp. Heat Index Dew Point Humidity Pressure Visibility Wind Dir Wind Speed Gust Speed Precip Events Conditions
12:15 AM 69.4 °F - 53.8 °F 57% 30.11 in 10.0 mi SSE 21.9 mph 27.6 mph N/A   Clear
12:35 AM 68.9 °F - 54.7 °F 60% 30.11 in 10.0 mi SSE 19.6 mph 27.6 mph N/A   Clear
12:55 AM 67.8 °F - 53.2 °F 60% 30.12 in 10.0 mi SSE 20.7 mph 24.2 mph N/A   Clear
1:15 AM 67.1 °F - 54.1 °F 63% 30.12 in 10.0 mi SSE 21.9 mph 27.6 mph N/A   Clear
1:35 AM 66.2 °F - 54.9 °F 67% 30.12 in 10.0 mi SSE 17.3 mph 24.2 mph N/A   Clear
1:55 AM 65.5 °F - 55.8 °F 71% 30.12 in 10.0 mi SSE 17.3 mph 26.5 mph N/A   Clear
2:15 AM 65.1 °F - 56.3 °F 73% 30.16 in 10.0 mi WNW 6.9 mph - N/A   Scattered Clouds
2:35 AM 65.5 °F - 57.4 °F 75% 30.15 in 10.0 mi SSW 9.2 mph - N/A   Mostly Cloudy
2:55 AM 63.9 °F - 57.6 °F 80% 30.14 in 10.0 mi South 10.4 mph - N/A   Mostly Cloudy
3:15 AM 64.4 °F - 57.7 °F 79% 30.14 in 10.0 mi SSE 10.4 mph - N/A   Mostly Cloudy
3:35 AM 63.9 °F - 57.7 °F 80% 30.13 in 10.0 mi South 12.7 mph - N/A   Overcast
3:55 AM 63.9 °F - 57.7 °F 80% 30.14 in 10.0 mi South 8.1 mph - N/A   Overcast
4:15 AM 63.5 °F - 57.6 °F 81% 30.14 in 10.0 mi South 8.1 mph - N/A   Overcast
4:35 AM 62.2 °F - 57.2 °F 84% 30.13 in 10.0 mi South 5.8 mph - N/A   Mostly Cloudy
4:55 AM 60.4 °F - 56.3 °F 86% 30.12 in 10.0 mi South 6.9 mph - N/A   Scattered Clouds
5:15 AM 59.9 °F - 56.3 °F 88% 30.11 in 10.0 mi South 5.8 mph - N/A   Clear
5:35 AM 59.0 °F - 55.9 °F 90% 30.11 in 10.0 mi South 5.8 mph - N/A   Clear
5:55 AM 57.7 °F - 55.4 °F 92% 30.12 in 10.0 mi Calm Calm - N/A   Clear
6:15 AM 56.5 °F - 54.0 °F 91% 30.11 in 10.0 mi SE 6.9 mph - N/A   Clear
6:35 AM 56.5 °F - 54.5 °F 93% 30.11 in 10.0 mi SSE 8.1 mph - N/A   Clear
6:55 AM 56.7 °F - 54.7 °F 93% 30.12 in 7.0 mi South 8.1 mph - N/A   Clear
7:15 AM 58.3 °F - 56.3 °F 93% 30.13 in 10.0 mi South 11.5 mph - N/A   Clear
7:35 AM 61.2 °F - 57.6 °F 88% 30.14 in 10.0 mi South 10.4 mph - N/A   Scattered Clouds
7:55 AM 62.2 °F - 57.7 °F 85% 30.13 in 10.0 mi South 15.0 mph - N/A   Overcast
8:15 AM 63.3 °F - 57.9 °F 83% 30.12 in 10.0 mi South 16.1 mph 20.7 mph N/A   Overcast
8:35 AM 63.9 °F - 57.7 °F 80% 30.12 in 10.0 mi SSW 13.8 mph - N/A   Mostly Cloudy
8:55 AM 65.7 °F - 57.4 °F 75% 30.11 in 10.0 mi South 19.6 mph 23.0 mph N/A   Mostly Cloudy
9:15 AM 67.6 °F - 56.3 °F 67% 30.11 in 10.0 mi South 18.4 mph - N/A   Scattered Clouds
9:35 AM 69.1 °F - 56.7 °F 65% 30.11 in 10.0 mi South 18.4 mph - N/A   Scattered Clouds
9:55 AM 70.0 °F - 56.1 °F 61% 30.11 in 10.0 mi South 15.0 mph 21.9 mph N/A   Clear
10:15 AM 72.0 °F - 56.8 °F 59% 30.11 in 10.0 mi SSW 17.3 mph 21.9 mph N/A   Scattered Clouds
10:35 AM 72.5 °F - 56.8 °F 58% 30.10 in 10.0 mi South 17.3 mph 24.2 mph N/A   Scattered Clouds
10:55 AM 73.4 °F - 57.0 °F 56% 30.10 in 10.0 mi SSW 17.3 mph - N/A   Clear
11:15 AM 74.5 °F - 57.0 °F 54% 30.10 in 10.0 mi South 12.7 mph 19.6 mph N/A   Scattered Clouds
11:35 AM 76.5 °F - 57.0 °F 51% 30.09 in 10.0 mi South 11.5 mph 20.7 mph N/A   Clear
11:55 AM 77.9 °F - 57.0 °F 48% 30.08 in 10.0 mi South 13.8 mph 20.7 mph N/A   Clear
12:15 PM 78.6 °F - 56.7 °F 47% 30.08 in 10.0 mi South 15.0 mph 23.0 mph N/A   Clear
12:35 PM 80.2 °F 80.4 °F 56.1 °F 43% 30.07 in 10.0 mi SSW 12.7 mph 23.0 mph N/A   Clear
12:55 PM 81.7 °F 81.4 °F 56.5 °F 42% 30.06 in 10.0 mi South 11.5 mph 20.7 mph N/A   Clear
1:15 PM 82.6 °F 82.0 °F 56.1 °F 40% 30.06 in 10.0 mi South 16.1 mph 23.0 mph N/A   Clear
1:35 PM 84.0 °F 83.2 °F 56.7 °F 39% 30.05 in 10.0 mi South 13.8 mph 23.0 mph N/A   Clear
1:55 PM 84.9 °F 83.7 °F 56.1 °F 37% 30.04 in 10.0 mi South 12.7 mph 24.2 mph N/A   Clear
2:15 PM 85.5 °F 84.1 °F 55.6 °F 36% 30.02 in 10.0 mi South 18.4 mph 24.2 mph N/A   Clear
2:35 PM 86.7 °F 85.1 °F 54.9 °F 34% 30.02 in 10.0 mi South 17.3 mph 28.8 mph N/A   Clear
2:55 PM 87.8 °F 85.9 °F 54.5 °F 32% 30.01 in 10.0 mi South 18.4 mph 26.5 mph N/A   Clear
3:15 PM 88.3 °F 86.3 °F 53.8 °F 31% 30.00 in 10.0 mi South 17.3 mph 26.5 mph N/A   Clear
3:35 PM 89.1 °F 86.7 °F 53.2 °F 29% 30.00 in 10.0 mi SSW 21.9 mph 29.9 mph N/A   Clear
3:55 PM 89.2 °F 86.9 °F 53.1 °F 29% 29.98 in 10.0 mi South 18.4 mph 29.9 mph N/A   Clear
4:15 PM 89.2 °F - 52.5 °F 28% 29.98 in 10.0 mi SSW 17.3 mph 29.9 mph N/A   Clear
4:35 PM 89.8 °F - 51.8 °F 27% 29.97 in 10.0 mi South 20.7 mph 26.5 mph N/A   Clear
4:55 PM 89.8 °F - 52.2 °F 28% 29.95 in 10.0 mi South 20.7 mph 26.5 mph N/A   Clear
5:15 PM 90.1 °F - 52.0 °F 27% 29.95 in 10.0 mi South 17.3 mph 26.5 mph N/A   Clear
5:35 PM 88.0 °F - 50.9 °F 28% 29.94 in 10.0 mi South 19.6 mph 27.6 mph N/A   Clear
5:55 PM 86.5 °F - 51.6 °F 30% 29.93 in 10.0 mi South 20.7 mph 27.6 mph N/A   Clear
6:15 PM 87.3 °F - 51.4 °F 29% 29.93 in 10.0 mi South 21.9 mph 26.5 mph N/A   Clear
6:35 PM 86.0 °F - 50.9 °F 30% 29.93 in 10.0 mi South 19.6 mph 26.5 mph N/A   Clear
6:55 PM 86.4 °F - 50.9 °F 29% 29.92 in 10.0 mi South 20.7 mph 26.5 mph N/A   Clear
7:15 PM 85.1 °F - 51.1 °F 31% 29.91 in 10.0 mi SSE 21.9 mph 26.5 mph N/A   Clear
7:35 PM 84.0 °F - 51.6 °F 33% 29.91 in 10.0 mi South 23.0 mph 29.9 mph N/A   Clear
7:55 PM 82.9 °F - 52.7 °F 35% 29.92 in 10.0 mi South 23.0 mph 28.8 mph N/A   Clear
8:15 PM 81.9 °F - 52.9 °F 37% 29.93 in 10.0 mi South 23.0 mph 32.2 mph N/A   Clear
8:35 PM 81.1 °F - 52.7 °F 37% 29.95 in 10.0 mi South 28.8 mph 34.5 mph N/A   Clear
8:55 PM 75.9 °F - 44.6 °F 33% 29.95 in 2.5 mi South 23.0 mph 43.7 mph N/A   Haze
9:15 PM 74.1 °F - 45.1 °F 35% 29.94 in 10.0 mi South 31.1 mph 40.3 mph N/A   Scattered Clouds
9:35 PM 73.0 °F - 45.7 °F 38% 29.90 in 10.0 mi SSE 25.3 mph 32.2 mph N/A   Clear
9:55 PM 76.1 °F - 43.0 °F 31% 29.89 in 5.0 mi South 24.2 mph 40.3 mph N/A   Haze
10:15 PM 81.3 °F - 35.4 °F 19% 29.88 in 10.0 mi South 15.0 mph 26.5 mph N/A   Scattered Clouds
10:35 PM 79.3 °F - 36.9 °F 22% 29.90 in 10.0 mi West 11.5 mph 18.4 mph N/A   Scattered Clouds
10:55 PM 76.6 °F - 37.9 °F 25% 29.91 in 10.0 mi WSW 9.2 mph - N/A   Clear
11:15 PM 75.4 °F - 39.7 °F 28% 29.93 in 10.0 mi West 10.4 mph - N/A   Clear
11:35 PM 71.4 °F - 40.3 °F 32% 29.95 in 10.0 mi SW 10.4 mph - N/A   Clear
11:55 PM 72.7 °F - 42.3 °F 33% 29.97 in 10.0 mi South 13.8 mph 20.7 mph N/A   Clear